Time;durP1;ratioP1;P1;durP2;ratioP2;P2;SDS_P1;SDS_P2;PMS_P1;PMS_P2;Temp;Humidity;BMP_temperature;BMP_pressure;BME280_temperature;BME280_humidity;BME280_pressure;Samples;Min_cycle;Max_cycle;Signal;HPM_P1;HPM_P2
2023/10/18 00:00:59;;;;;;;17.53;15.83;;;7.70;99.90;;;;;;5031809;28;20456;-71
2023/10/18 00:03:32;;;;;;;15.77;14.23;;;7.70;99.90;;;;;;5031517;28;20455;-72
2023/10/18 00:05:59;;;;;;;16.17;14.47;;;7.70;99.90;;;;;;5031342;28;20458;-71
2023/10/18 00:08:25;;;;;;;17.60;15.60;;;7.70;99.90;;;;;;5031774;28;20947;-71
2023/10/18 00:10:53;;;;;;;22.07;17.17;;;7.70;99.90;;;;;;5031793;28;20487;-72
2023/10/18 00:13:22;;;;;;;16.67;15.07;;;7.60;99.90;;;;;;5031568;28;20440;-71
2023/10/18 00:15:52;;;;;;;17.23;15.17;;;7.50;99.90;;;;;;5031809;28;20436;-71
2023/10/18 00:18:19;;;;;;;19.23;16.50;;;7.50;99.90;;;;;;5032099;28;20408;-72
2023/10/18 00:20:45;;;;;;;22.97;19.23;;;7.50;99.90;;;;;;5031626;28;20419;-72
2023/10/18 00:23:10;;;;;;;19.90;17.80;;;7.40;99.90;;;;;;5033858;28;20441;-71
2023/10/18 00:25:36;;;;;;;16.47;14.80;;;7.50;99.90;;;;;;5035154;28;20246;-71
2023/10/18 00:28:03;;;;;;;16.53;14.63;;;7.50;99.90;;;;;;5034855;28;20631;-71
2023/10/18 00:30:30;;;;;;;17.53;15.73;;;7.50;99.90;;;;;;5035297;28;21016;-70
2023/10/18 00:32:56;;;;;;;18.53;15.97;;;7.50;99.90;;;;;;5035599;28;20413;-71
2023/10/18 00:35:31;;;;;;;17.20;15.50;;;7.50;99.90;;;;;;5035163;28;20431;-71
2023/10/18 00:37:57;;;;;;;18.53;16.63;;;7.50;99.90;;;;;;5035220;28;20408;-71
2023/10/18 00:45:47;;;;;;;20.20;17.90;;;7.40;99.90;;;;;;5036491;28;20442;-71
2023/10/18 00:48:13;;;;;;;18.03;16.20;;;7.40;99.90;;;;;;5035238;28;20411;-72
2023/10/18 00:50:43;;;;;;;16.87;14.60;;;7.30;99.90;;;;;;5035117;28;20463;-71
2023/10/18 00:53:10;;;;;;;19.60;15.67;;;7.20;99.90;;;;;;5035074;28;20509;-72
2023/10/18 00:55:37;;;;;;;17.90;16.00;;;7.30;99.90;;;;;;5034839;28;20529;-71
2023/10/18 00:58:08;;;;;;;18.00;15.33;;;7.30;99.90;;;;;;5034878;28;20411;-71
2023/10/18 01:00:35;;;;;;;17.63;15.87;;;7.30;99.90;;;;;;5035015;28;20419;-71
2023/10/18 01:03:06;;;;;;;16.83;15.03;;;7.30;99.90;;;;;;5034267;28;20461;-71
2023/10/18 01:05:32;;;;;;;21.40;17.77;;;7.30;99.90;;;;;;5034349;28;20450;-71
2023/10/18 01:07:59;;;;;;;21.47;18.20;;;7.40;99.90;;;;;;5034707;28;20418;-71
2023/10/18 01:10:24;;;;;;;17.23;15.37;;;7.30;99.90;;;;;;5034477;28;20967;-71
2023/10/18 01:12:53;;;;;;;18.40;16.10;;;7.40;99.90;;;;;;5034668;28;20442;-71
2023/10/18 01:15:20;;;;;;;17.70;15.80;;;7.30;99.90;;;;;;5034719;28;20723;-71
2023/10/18 01:17:47;;;;;;;20.20;17.87;;;7.40;99.90;;;;;;5034581;28;20411;-71
2023/10/18 01:20:47;;;;;;;18.83;16.83;;;7.40;99.90;;;;;;5034361;28;20995;-71
2023/10/18 01:23:07;;;;;;;22.17;18.60;;;7.40;99.90;;;;;;5033834;28;20407;-70
2023/10/18 01:25:34;;;;;;;21.60;18.47;;;7.30;99.90;;;;;;5034068;28;20461;-72
2023/10/18 01:27:59;;;;;;;18.50;16.60;;;7.30;99.90;;;;;;5034483;28;20505;-71
2023/10/18 01:30:25;;;;;;;20.90;18.67;;;7.30;99.90;;;;;;5034179;28;21013;-72
2023/10/18 01:32:51;;;;;;;19.27;17.27;;;7.30;99.90;;;;;;5034168;28;20205;-70
2023/10/18 01:35:16;;;;;;;28.80;22.83;;;7.30;99.90;;;;;;5034202;28;20215;-72
2023/10/18 01:37:46;;;;;;;19.40;17.20;;;7.30;99.90;;;;;;5033432;28;20410;-72
2023/10/18 01:41:13;;;;;;;20.20;18.10;;;7.40;99.90;;;;;;5033808;28;20231;-71
2023/10/18 01:43:06;;;;;;;20.90;18.67;;;7.40;99.90;;;;;;5026187;28;20419;-72
2023/10/18 01:45:38;;;;;;;17.93;15.37;;;7.40;99.90;;;;;;5033977;28;20435;-72
2023/10/18 01:48:09;;;;;;;22.60;20.20;;;7.40;99.90;;;;;;5034003;28;20202;-72
2023/10/18 01:50:38;;;;;;;21.43;18.67;;;7.40;99.90;;;;;;5034073;28;20826;-72
2023/10/18 01:53:04;;;;;;;20.10;17.90;;;7.40;99.90;;;;;;5033899;28;20414;-72
2023/10/18 01:55:31;;;;;;;19.30;17.30;;;7.40;99.90;;;;;;5033678;28;20957;-72
2023/10/18 01:57:58;;;;;;;22.10;18.87;;;7.40;99.90;;;;;;5033615;28;20446;-72
2023/10/18 02:00:34;;;;;;;20.63;16.80;;;7.40;99.90;;;;;;5033888;28;20501;-72
2023/10/18 02:03:01;;;;;;;21.07;18.80;;;7.40;99.90;;;;;;5034126;28;20416;-72
2023/10/18 02:05:27;;;;;;;22.83;19.87;;;7.40;99.90;;;;;;5034185;28;20473;-72
2023/10/18 02:07:55;;;;;;;21.30;18.00;;;7.40;99.90;;;;;;5033525;28;20457;-71
2023/10/18 02:10:21;;;;;;;24.13;21.47;;;7.40;99.90;;;;;;5033609;28;20203;-71
2023/10/18 02:12:47;;;;;;;23.23;18.60;;;7.40;99.90;;;;;;5033183;28;20789;-70
2023/10/18 02:15:13;;;;;;;21.17;18.60;;;7.40;99.90;;;;;;5033521;28;20625;-72
2023/10/18 02:17:40;;;;;;;25.77;20.73;;;7.30;99.90;;;;;;5033328;28;20181;-72
2023/10/18 02:20:25;;;;;;;21.53;18.10;;;7.40;99.90;;;;;;5033591;28;20177;-72
2023/10/18 02:22:53;;;;;;;25.93;20.87;;;7.30;99.90;;;;;;5033597;28;20924;-71
2023/10/18 02:33:40;;;;;;;23.67;19.70;;;7.30;99.90;;;;;;5034554;28;20767;-72
2023/10/18 02:36:10;;;;;;;22.50;20.10;;;7.30;99.90;;;;;;5033137;28;20509;-72
2023/10/18 02:38:38;;;;;;;21.37;19.10;;;7.30;99.90;;;;;;5033291;28;20714;-71
2023/10/18 02:41:15;;;;;;;23.20;20.37;;;7.30;99.90;;;;;;5032810;28;20563;-70
2023/10/18 02:43:45;;;;;;;24.23;21.27;;;7.40;99.90;;;;;;5033195;28;20431;-70
2023/10/18 02:46:13;;;;;;;23.80;21.30;;;7.40;99.90;;;;;;5033009;28;20434;-71
2023/10/18 02:48:41;;;;;;;22.47;20.07;;;7.40;99.90;;;;;;5032828;28;20473;-72
2023/10/18 02:51:07;;;;;;;22.47;19.13;;;7.40;99.90;;;;;;5032197;28;20462;-72
2023/10/18 02:53:40;;;;;;;19.97;17.87;;;7.40;99.90;;;;;;5032364;28;20495;-72
2023/10/18 02:56:06;;;;;;;19.43;17.33;;;7.30;99.90;;;;;;5032699;28;20569;-72
2023/10/18 02:58:33;;;;;;;20.40;17.33;;;7.40;99.90;;;;;;5032154;28;20476;-72
2023/10/18 03:01:09;;;;;;;21.90;17.90;;;7.40;99.90;;;;;;5032614;28;20208;-72
2023/10/18 03:03:35;;;;;;;21.70;17.93;;;7.50;99.90;;;;;;5032605;28;20411;-72
2023/10/18 03:06:06;;;;;;;23.80;19.70;;;7.50;99.90;;;;;;5032281;28;20458;-72
2023/10/18 03:08:33;;;;;;;26.60;23.47;;;7.50;99.90;;;;;;5032511;28;20407;-71
2023/10/18 03:11:01;;;;;;;23.80;20.93;;;7.40;99.90;;;;;;5032368;28;20555;-72
2023/10/18 03:13:27;;;;;;;24.50;20.77;;;7.40;99.90;;;;;;5032451;28;20414;-72
2023/10/18 03:16:08;;;;;;;22.00;18.60;;;7.50;99.90;;;;;;5032364;28;20447;-72
2023/10/18 03:18:34;;;;;;;27.23;21.07;;;7.50;99.90;;;;;;5032489;28;20407;-72
2023/10/18 03:21:05;;;;;;;23.13;20.73;;;7.40;99.90;;;;;;5032418;28;20426;-72
2023/10/18 03:23:31;;;;;;;23.73;20.73;;;7.40;99.90;;;;;;5032360;28;20407;-72
2023/10/18 03:26:00;;;;;;;25.03;20.70;;;7.40;99.90;;;;;;5032111;28;20433;-71
2023/10/18 03:28:34;;;;;;;24.43;18.57;;;7.40;99.90;;;;;;5032241;28;20490;-71
2023/10/18 03:31:16;;;;;;;21.30;18.77;;;7.40;99.90;;;;;;5032606;28;20804;-72
2023/10/18 03:33:45;;;;;;;20.57;18.17;;;7.40;99.90;;;;;;5032095;28;20405;-71
2023/10/18 03:36:20;;;;;;;26.73;21.70;;;7.40;99.90;;;;;;5032384;28;20432;-71
2023/10/18 03:38:54;;;;;;;23.77;19.60;;;7.40;99.90;;;;;;5032829;28;20765;-71
2023/10/18 03:41:22;;;;;;;23.50;20.87;;;7.30;99.90;;;;;;5032237;28;20409;-71
2023/10/18 03:43:49;;;;;;;24.60;20.73;;;7.40;99.90;;;;;;5031965;28;20418;-71
2023/10/18 03:46:18;;;;;;;22.93;20.10;;;7.30;99.90;;;;;;5032187;28;20441;-72
2023/10/18 03:48:54;;;;;;;23.63;19.40;;;7.40;99.90;;;;;;5032171;28;20873;-70
2023/10/18 03:51:23;;;;;;;23.17;20.63;;;7.40;99.90;;;;;;5032008;28;20528;-70
2023/10/18 03:53:55;;;;;;;22.93;19.40;;;7.30;99.90;;;;;;5032154;28;20929;-71
2023/10/18 03:56:22;;;;;;;23.80;21.30;;;7.30;99.90;;;;;;5031752;28;20421;-70
2023/10/18 03:59:00;;;;;;;23.33;20.53;;;7.20;99.90;;;;;;5031862;28;20932;-71
2023/10/18 04:01:28;;;;;;;20.67;18.40;;;7.10;99.90;;;;;;5033183;28;20509;-70
2023/10/18 04:03:56;;;;;;;22.80;18.53;;;7.20;99.90;;;;;;5036010;28;20422;-71
2023/10/18 04:06:23;;;;;;;25.00;21.37;;;7.20;99.90;;;;;;5035866;28;20435;-71
2023/10/18 04:08:50;;;;;;;23.20;20.00;;;7.20;99.90;;;;;;5036382;28;20410;-70
2023/10/18 04:11:21;;;;;;;22.40;20.00;;;7.20;99.90;;;;;;5036009;28;20510;-70
2023/10/18 04:13:51;;;;;;;23.23;20.87;;;7.20;99.90;;;;;;5035983;28;20858;-70
2023/10/18 04:16:17;;;;;;;23.50;18.87;;;7.20;99.90;;;;;;5035706;28;20511;-70
2023/10/18 04:18:43;;;;;;;22.30;19.60;;;7.20;99.90;;;;;;5035560;28;20815;-71
2023/10/18 04:21:15;;;;;;;24.63;19.80;;;7.20;99.90;;;;;;5035734;28;20497;-71
2023/10/18 04:23:49;;;;;;;24.23;18.00;;;7.10;99.90;;;;;;5035601;28;20246;-71
2023/10/18 04:26:18;;;;;;;19.73;16.47;;;7.10;99.90;;;;;;5035538;28;20847;-71
2023/10/18 04:28:45;;;;;;;22.33;19.93;;;7.10;99.90;;;;;;5035672;28;20427;-72
2023/10/18 04:31:14;;;;;;;26.70;22.80;;;7.20;99.90;;;;;;5035502;28;20465;-71
2023/10/18 04:33:41;;;;;;;22.03;19.67;;;7.00;99.90;;;;;;5035487;28;20434;-72
2023/10/18 04:36:12;;;;;;;21.47;19.17;;;7.10;99.90;;;;;;5035241;28;20485;-72
2023/10/18 04:38:47;;;;;;;22.30;19.97;;;7.20;99.90;;;;;;5035418;28;20411;-72
2023/10/18 04:44:07;;;;;;;23.20;20.37;;;7.20;99.90;;;;;;5027657;28;20409;-72
2023/10/18 04:46:37;;;;;;;27.17;21.53;;;7.20;99.90;;;;;;5044609;28;20484;-72
2023/10/18 04:51:44;;;;;;;21.63;18.77;;;7.10;99.90;;;;;;5035857;28;20438;-73
2023/10/18 04:54:15;;;;;;;23.90;20.53;;;7.10;99.90;;;;;;5034824;28;20404;-72
2023/10/18 04:56:44;;;;;;;21.93;19.23;;;7.20;99.90;;;;;;5035240;28;20850;-70
2023/10/18 05:04:20;;;;;;;23.60;20.30;;;7.10;99.90;;;;;;5036363;28;20463;-71
2023/10/18 05:06:56;;;;;;;21.93;18.93;;;7.10;99.90;;;;;;5035141;28;20475;-71
2023/10/18 05:09:31;;;;;;;33.20;24.20;;;7.10;99.90;;;;;;5034805;28;20439;-72
2023/10/18 05:14:43;;;;;;;27.07;22.80;;;7.00;99.90;;;;;;5036182;28;20464;-70
2023/10/18 05:17:21;;;;;;;21.97;19.67;;;7.00;99.90;;;;;;5034799;28;20414;-69
2023/10/18 05:19:48;;;;;;;25.03;22.00;;;7.00;99.90;;;;;;5034689;28;20433;-70
2023/10/18 05:22:23;;;;;;;24.83;20.57;;;6.90;99.90;;;;;;5034662;28;20464;-73
2023/10/18 05:27:45;;;;;;;27.70;23.40;;;7.00;99.90;;;;;;5035628;28;20431;-70
2023/10/18 05:30:15;;;;;;;25.77;23.00;;;7.00;99.90;;;;;;5034958;28;20446;-71
2023/10/18 05:35:35;;;;;;;28.07;24.00;;;7.00;99.90;;;;;;5035091;28;20438;-72
2023/10/18 05:40:56;;;;;;;21.87;19.47;;;7.00;99.90;;;;;;5027363;28;20418;-72
2023/10/18 05:43:22;;;;;;;26.47;23.07;;;7.00;99.90;;;;;;5034313;28;20476;-72
2023/10/18 05:45:49;;;;;;;28.87;22.93;;;7.00;99.90;;;;;;5034277;28;20495;-72
2023/10/18 05:48:22;;;;;;;25.93;23.23;;;7.00;99.90;;;;;;5034386;28;20857;-72
2023/10/18 05:51:21;;;;;;;26.90;23.27;;;7.10;99.90;;;;;;5034096;28;20812;-72
2023/10/18 05:53:48;;;;;;;20.83;18.73;;;7.10;99.90;;;;;;5034410;28;20913;-71
2023/10/18 05:56:14;;;;;;;28.60;24.27;;;7.10;99.90;;;;;;5033878;28;20812;-71
2023/10/18 05:58:39;;;;;;;25.70;22.43;;;7.10;99.90;;;;;;5033802;28;20403;-72
2023/10/18 06:01:05;;;;;;;25.20;22.50;;;7.10;99.90;;;;;;5033910;28;20198;-70
2023/10/18 06:03:39;;;;;;;30.43;25.93;;;7.10;99.90;;;;;;5033883;28;20172;-69
2023/10/18 06:06:08;;;;;;;30.90;25.23;;;7.10;99.90;;;;;;5035010;28;20581;-71
2023/10/18 06:08:34;;;;;;;31.67;26.23;;;7.10;99.90;;;;;;5034799;28;20783;-72
2023/10/18 06:11:06;;;;;;;24.63;21.93;;;7.10;99.90;;;;;;5035145;28;20443;-72
2023/10/18 06:13:35;;;;;;;26.80;24.00;;;7.20;99.90;;;;;;5033922;28;20437;-71
2023/10/18 06:16:18;;;;;;;25.30;22.57;;;7.20;99.90;;;;;;5033621;28;20569;-71
2023/10/18 06:18:45;;;;;;;21.67;19.37;;;7.30;99.90;;;;;;5036029;28;20418;-71
2023/10/18 06:21:18;;;;;;;25.90;22.53;;;7.30;99.90;;;;;;5032761;28;20427;-71
2023/10/18 06:23:55;;;;;;;26.70;24.07;;;7.30;99.90;;;;;;5031157;28;20414;-72
2023/10/18 06:26:34;;;;;;;26.27;23.30;;;7.40;99.90;;;;;;5031903;28;20431;-71
2023/10/18 06:29:01;;;;;;;24.37;20.83;;;7.50;99.90;;;;;;5033807;28;20407;-71
2023/10/18 06:31:30;;;;;;;22.73;19.70;;;7.60;99.90;;;;;;5033518;28;20453;-71
2023/10/18 06:33:58;;;;;;;23.03;20.60;;;7.70;99.90;;;;;;5033130;28;20472;-71
2023/10/18 06:36:24;;;;;;;21.90;19.50;;;7.80;99.90;;;;;;5033193;28;20474;-71
2023/10/18 06:38:51;;;;;;;24.50;21.30;;;7.90;99.90;;;;;;5033191;28;20490;-72
2023/10/18 06:41:23;;;;;;;24.03;21.50;;;8.00;99.90;;;;;;5032998;28;20445;-69
2023/10/18 06:43:54;;;;;;;26.23;21.70;;;8.00;99.90;;;;;;5032800;28;20396;-71
2023/10/18 06:46:26;;;;;;;22.40;20.13;;;8.20;99.90;;;;;;5032743;28;20837;-71
2023/10/18 06:48:54;;;;;;;22.97;20.50;;;8.30;99.90;;;;;;5033726;28;20477;-72
2023/10/18 06:51:30;;;;;;;25.50;21.70;;;8.40;99.90;;;;;;5033001;28;20531;-71
2023/10/18 06:54:03;;;;;;;22.73;20.23;;;8.50;99.90;;;;;;5032693;28;20930;-72
2023/10/18 06:56:32;;;;;;;23.00;20.60;;;8.60;99.90;;;;;;5032609;28;20968;-72
2023/10/18 06:59:06;;;;;;;20.20;18.03;;;8.70;99.90;;;;;;5032280;28;20459;-73
2023/10/18 07:01:32;;;;;;;24.87;19.90;;;8.70;99.90;;;;;;5032749;28;20410;-72
2023/10/18 07:04:00;;;;;;;23.60;20.93;;;8.40;99.90;;;;;;5032465;28;20947;-74
2023/10/18 07:06:29;;;;;;;25.10;22.60;;;8.40;99.90;;;;;;5032318;28;20574;-72
2023/10/18 07:08:56;;;;;;;19.53;17.47;;;8.30;99.90;;;;;;5032565;28;20556;-73
2023/10/18 07:11:23;;;;;;;24.67;21.27;;;8.60;99.90;;;;;;5032351;28;20454;-73
2023/10/18 07:13:54;;;;;;;20.30;18.20;;;8.80;99.90;;;;;;5033909;28;20404;-72
2023/10/18 07:21:51;;;;;;;21.07;18.57;;;8.70;99.90;;;;;;5017917;28;20500;-73
2023/10/18 07:24:20;;;;;;;23.50;20.47;;;8.70;99.90;;;;;;5031990;28;20831;-73
2023/10/18 07:26:47;;;;;;;20.83;18.63;;;8.70;99.90;;;;;;5032092;28;20783;-70
2023/10/18 07:29:14;;;;;;;20.90;18.80;;;9.00;99.90;;;;;;5032204;28;20504;-74
2023/10/18 07:31:42;;;;;;;23.43;19.87;;;9.20;99.90;;;;;;5031977;28;20482;-71
2023/10/18 07:34:08;;;;;;;24.70;20.50;;;9.10;99.90;;;;;;5032069;28;20415;-72
2023/10/18 07:36:38;;;;;;;22.60;19.73;;;9.00;99.90;;;;;;5032430;28;20468;-72
2023/10/18 07:39:05;;;;;;;21.27;19.07;;;9.10;99.90;;;;;;5032368;28;20402;-73
2023/10/18 07:41:34;;;;;;;25.43;21.00;;;9.30;99.90;;;;;;5032922;28;20424;-73
2023/10/18 07:44:05;;;;;;;22.80;20.50;;;9.40;99.90;;;;;;5032221;28;20413;-74
2023/10/18 07:46:39;;;;;;;24.50;21.97;;;9.50;99.90;;;;;;5032343;28;20407;-71
2023/10/18 07:49:11;;;;;;;23.30;20.67;;;9.20;99.90;;;;;;5032216;28;20791;-70
2023/10/18 07:51:43;;;;;;;21.07;18.90;;;9.00;99.90;;;;;;5032184;28;20997;-71
2023/10/18 07:54:09;;;;;;;21.50;19.30;;;9.00;99.90;;;;;;5032298;28;20404;-72
2023/10/18 07:56:40;;;;;;;21.03;18.77;;;9.10;99.90;;;;;;5032198;28;20406;-72
2023/10/18 08:02:07;;;;;;;20.03;17.87;;;9.40;99.90;;;;;;5033774;28;20546;-72
2023/10/18 08:04:36;;;;;;;21.87;19.60;;;9.50;99.90;;;;;;5032821;28;20464;-71
2023/10/18 08:07:10;;;;;;;21.43;19.13;;;9.50;99.90;;;;;;5032070;28;20417;-71
2023/10/18 08:09:42;;;;;;;21.00;18.77;;;9.20;99.90;;;;;;5032278;28;20776;-70
2023/10/18 08:12:20;;;;;;;25.67;20.47;;;9.50;99.90;;;;;;5031966;28;20961;-69
2023/10/18 08:14:47;;;;;;;21.53;19.23;;;9.80;99.90;;;;;;5031652;28;20427;-72
2023/10/18 08:20:29;;;;;;;23.20;20.70;;;9.80;99.90;;;;;;5033083;28;20385;-69
2023/10/18 08:22:55;;;;;;;23.87;20.10;;;9.70;99.90;;;;;;5031646;28;20760;-69
2023/10/18 08:25:31;;;;;;;22.37;19.87;;;10.00;99.90;;;;;;5031377;28;20520;-69
2023/10/18 08:27:59;;;;;;;29.90;20.30;;;10.20;99.90;;;;;;5031531;28;20615;-70
2023/10/18 08:33:10;;;;;;;25.60;21.80;;;10.20;99.90;;;;;;5033414;28;20399;-69
2023/10/18 08:35:39;;;;;;;26.63;19.70;;;10.30;99.90;;;;;;5031564;28;20437;-69
2023/10/18 08:38:04;;;;;;;23.40;21.10;;;10.30;99.90;;;;;;5031476;28;20438;-69
2023/10/18 08:43:15;;;;;;;25.67;21.07;;;10.40;99.90;;;;;;5032658;28;20165;-69
2023/10/18 08:45:47;;;;;;;23.43;20.10;;;10.30;99.90;;;;;;5031961;28;20434;-70
2023/10/18 08:48:17;;;;;;;24.27;20.90;;;10.50;99.90;;;;;;5033169;28;20417;-70
2023/10/18 08:50:45;;;;;;;23.53;21.03;;;10.70;99.90;;;;;;5034849;28;20444;-69
2023/10/18 08:53:15;;;;;;;21.03;18.93;;;10.90;99.90;;;;;;5035103;28;20444;-70
2023/10/18 08:55:51;;;;;;;23.37;20.97;;;11.20;99.90;;;;;;5035011;28;20493;-69
2023/10/18 08:58:18;;;;;;;23.27;19.90;;;11.50;99.90;;;;;;5034627;28;20941;-71
2023/10/18 09:03:27;;;;;;;19.93;18.03;;;11.80;99.90;;;;;;5036200;28;20436;-72
2023/10/18 09:06:04;;;;;;;20.60;18.37;;;11.90;99.90;;;;;;5033727;28;20449;-71
2023/10/18 09:08:35;;;;;;;21.60;19.33;;;11.40;99.90;;;;;;5034155;28;20770;-72
2023/10/18 09:11:05;;;;;;;20.40;18.17;;;11.40;99.90;;;;;;5033830;28;20536;-73
2023/10/18 09:13:37;;;;;;;19.63;17.53;;;11.30;99.90;;;;;;5033490;28;20412;-72
2023/10/18 09:16:11;;;;;;;21.10;18.90;;;11.30;99.90;;;;;;5033489;28;20436;-71
2023/10/18 09:18:37;;;;;;;20.37;18.47;;;11.50;99.90;;;;;;5033892;28;20402;-70
2023/10/18 09:23:40;;;;;;;20.33;18.17;;;11.60;99.90;;;;;;5034931;28;20400;-70
2023/10/18 09:26:10;;;;;;;20.40;18.30;;;11.40;99.90;;;;;;5033669;28;20813;-72
2023/10/18 09:28:37;;;;;;;21.20;18.90;;;11.70;99.90;;;;;;5038041;28;20414;-71
2023/10/18 09:31:11;;;;;;;22.40;19.10;;;12.00;99.90;;;;;;5033892;28;20463;-71
2023/10/18 09:33:51;;;;;;;22.87;20.47;;;12.30;99.90;;;;;;5034367;28;20730;-71
2023/10/18 09:36:25;;;;;;;20.20;18.10;;;12.40;99.90;;;;;;5034653;28;20434;-72
2023/10/18 09:38:52;;;;;;;21.37;18.97;;;12.30;99.90;;;;;;5035242;28;20903;-72
2023/10/18 09:41:19;;;;;;;23.83;20.70;;;12.50;99.90;;;;;;5034448;28;20419;-73
2023/10/18 09:43:47;;;;;;;22.47;19.67;;;12.40;99.90;;;;;;5015295;28;20428;-73
2023/10/18 09:46:13;;;;;;;25.47;19.40;;;12.30;99.90;;;;;;5031852;28;20440;-73
2023/10/18 09:48:44;;;;;;;22.93;20.00;;;12.50;99.90;;;;;;5030866;28;20408;-71
2023/10/18 09:51:14;;;;;;;22.00;17.60;;;12.60;99.90;;;;;;5013904;28;20449;-70
2023/10/18 09:53:49;;;;;;;21.87;16.40;;;12.80;99.90;;;;;;5033823;28;20547;-70
2023/10/18 09:56:19;;;;;;;16.93;15.17;;;13.10;99.90;;;;;;5033487;28;20461;-71
2023/10/18 09:58:51;;;;;;;19.40;15.90;;;13.30;99.90;;;;;;5033076;28;20417;-70
2023/10/18 10:01:30;;;;;;;17.23;15.43;;;13.50;99.90;;;;;;5033215;28;20409;-71
2023/10/18 10:03:56;;;;;;;17.80;15.10;;;13.70;99.90;;;;;;5030618;28;20835;-75
2023/10/18 10:06:24;;;;;;;16.83;15.03;;;13.70;99.90;;;;;;4976004;28;1147755;-75
2023/10/18 10:09:12;;;;;;;14.50;13.00;;;13.90;99.90;;;;;;5014108;28;20189;-69
2023/10/18 10:11:44;;;;;;;20.13;14.33;;;13.90;99.90;;;;;;5017405;28;20446;-70
2023/10/18 10:14:10;;;;;;;14.93;13.53;;;13.90;99.90;;;;;;5033573;28;20414;-71
2023/10/18 10:16:39;;;;;;;15.73;14.13;;;14.00;99.90;;;;;;5033941;28;20764;-72
2023/10/18 10:19:11;;;;;;;15.00;13.50;;;13.90;99.90;;;;;;5033420;28;20409;-68
2023/10/18 10:21:37;;;;;;;16.03;14.50;;;13.70;99.90;;;;;;5032881;28;20509;-71
2023/10/18 10:24:29;;;;;;;13.80;12.40;;;13.90;99.90;;;;;;5032813;28;20422;-69
2023/10/18 10:26:52;;;;;;;13.10;11.67;;;14.10;99.90;;;;;;5034172;28;20447;-72
2023/10/18 10:32:05;;;;;;;13.40;11.60;;;13.60;99.90;;;;;;5034233;28;20199;-71
2023/10/18 10:34:41;;;;;;;12.93;11.70;;;13.90;99.90;;;;;;5030659;28;20432;-72
2023/10/18 10:37:18;;;;;;;13.37;12.17;;;14.30;99.90;;;;;;5030164;28;20419;-71
2023/10/18 10:39:49;;;;;;;12.80;11.50;;;14.60;99.90;;;;;;5032709;28;20429;-70
2023/10/18 10:42:41;;;;;;;15.60;14.00;;;15.20;99.90;;;;;;5032924;28;20415;-71
2023/10/18 10:45:30;;;;;;;17.40;15.50;;;15.50;99.90;;;;;;5033040;28;20438;-70
2023/10/18 10:47:55;;;;;;;15.27;13.77;;;15.60;99.90;;;;;;5033995;28;20927;-70
2023/10/18 10:50:42;;;;;;;17.90;16.20;;;15.80;99.90;;;;;;5032847;28;20450;-70
2023/10/18 10:53:15;;;;;;;19.97;15.77;;;16.30;99.90;;;;;;5032374;28;20860;-70
2023/10/18 10:55:43;;;;;;;21.30;16.73;;;16.80;99.90;;;;;;5032596;28;20430;-68
2023/10/18 10:58:17;;;;;;;19.57;15.47;;;16.90;99.90;;;;;;5032975;28;20418;-70
2023/10/18 11:01:04;;;;;;;18.40;15.37;;;17.60;99.90;;;;;;5033535;28;20794;-71
2023/10/18 11:03:46;;;;;;;15.50;13.83;;;19.40;97.50;;;;;;5031683;28;20430;-72
2023/10/18 11:06:18;;;;;;;14.50;12.90;;;20.10;96.10;;;;;;5032155;28;20460;-71
2023/10/18 11:08:44;;;;;;;14.87;13.30;;;19.30;95.80;;;;;;5032441;28;20406;-71
2023/10/18 11:11:10;;;;;;;14.50;13.20;;;19.00;95.50;;;;;;5032002;28;20450;-70
2023/10/18 11:13:40;;;;;;;15.23;13.73;;;19.00;95.50;;;;;;5032399;28;20526;-71
2023/10/18 11:16:06;;;;;;;15.60;13.97;;;20.00;94.40;;;;;;5032235;28;20649;-71
2023/10/18 11:18:42;;;;;;;26.30;17.30;;;20.70;93.10;;;;;;5032293;28;20460;-71
2023/10/18 11:21:30;;;;;;;19.10;17.10;;;19.60;93.60;;;;;;5032281;28;20175;-71
2023/10/18 11:24:10;;;;;;;18.00;15.40;;;18.00;95.80;;;;;;5032260;28;20432;-70
2023/10/18 11:26:40;;;;;;;17.53;15.67;;;17.20;97.40;;;;;;5032289;28;20418;-71
2023/10/18 11:29:07;;;;;;;21.40;15.50;;;16.70;98.60;;;;;;5033321;28;20410;-71
2023/10/18 11:31:37;;;;;;;16.70;14.30;;;16.80;98.30;;;;;;5031878;28;20986;-72
2023/10/18 11:34:06;;;;;;;14.57;13.13;;;16.50;98.70;;;;;;5028904;28;20801;-71
2023/10/18 11:36:34;;;;;;;16.90;13.20;;;16.30;99.40;;;;;;5031650;28;20441;-72
2023/10/18 11:39:34;;;;;;;20.30;14.80;;;16.10;99.90;;;;;;5028997;28;20410;-71
2023/10/18 11:42:02;;;;;;;16.17;14.53;;;16.10;99.90;;;;;;5030950;28;20407;-70
2023/10/18 11:44:31;;;;;;;15.10;13.50;;;16.10;99.90;;;;;;5030339;28;20479;-71
2023/10/18 11:47:03;;;;;;;17.33;12.97;;;16.10;99.90;;;;;;5031946;28;20418;-71
2023/10/18 11:49:39;;;;;;;15.13;13.20;;;16.30;99.50;;;;;;5031970;28;20921;-70
2023/10/18 11:52:16;;;;;;;14.10;12.70;;;16.40;99.90;;;;;;5032138;28;20441;-71
2023/10/18 11:54:43;;;;;;;13.87;12.50;;;16.90;99.50;;;;;;5031878;28;20968;-71
2023/10/18 11:57:29;;;;;;;14.60;13.10;;;16.60;99.10;;;;;;5031776;28;20421;-71
2023/10/18 11:59:56;;;;;;;14.93;13.43;;;16.60;99.50;;;;;;5031984;28;20481;-71
2023/10/18 12:02:30;;;;;;;13.87;12.47;;;16.30;99.80;;;;;;5031900;28;20920;-71
2023/10/18 12:04:57;;;;;;;13.90;12.50;;;16.30;99.90;;;;;;5031740;28;20453;-71
2023/10/18 12:07:24;;;;;;;13.10;11.70;;;16.50;99.80;;;;;;5031841;28;20417;-71
2023/10/18 12:09:53;;;;;;;13.67;12.30;;;16.40;99.90;;;;;;5025345;28;20428;-71
2023/10/18 12:12:19;;;;;;;13.03;11.60;;;16.60;99.90;;;;;;5022111;28;20703;-73
2023/10/18 12:14:46;;;;;;;15.40;12.00;;;16.50;99.90;;;;;;5021743;28;20463;-72
2023/10/18 12:17:13;;;;;;;15.40;11.50;;;16.60;99.70;;;;;;5021912;28;20501;-71
2023/10/18 12:19:39;;;;;;;11.23;10.13;;;16.20;99.90;;;;;;5021704;28;20493;-70
2023/10/18 12:22:07;;;;;;;11.17;9.97;;;16.20;99.90;;;;;;5021878;28;20421;-69
2023/10/18 12:24:37;;;;;;;10.97;9.83;;;16.20;99.90;;;;;;5026148;28;20437;-69
2023/10/18 12:29:48;;;;;;;12.73;11.43;;;16.40;99.90;;;;;;5028600;28;20454;-68
2023/10/18 12:32:25;;;;;;;13.63;11.57;;;16.80;99.60;;;;;;5035508;28;20488;-70
2023/10/18 12:34:52;;;;;;;12.40;11.10;;;16.60;99.50;;;;;;5034984;28;20436;-70
2023/10/18 12:37:18;;;;;;;10.80;9.63;;;16.50;99.90;;;;;;5035175;28;20785;-70
2023/10/18 12:39:46;;;;;;;10.87;9.80;;;16.70;99.70;;;;;;5035265;28;20413;-70
2023/10/18 12:42:16;;;;;;;11.00;9.97;;;16.80;99.60;;;;;;5035411;28;20175;-70
2023/10/18 12:44:46;;;;;;;11.13;9.93;;;16.70;99.90;;;;;;5035423;28;20437;-70
2023/10/18 12:47:12;;;;;;;13.23;9.97;;;16.70;99.90;;;;;;5035517;28;20421;-71
2023/10/18 12:49:44;;;;;;;9.93;8.97;;;16.50;99.90;;;;;;5035153;28;20834;-75
2023/10/18 12:52:41;;;;;;;11.13;9.20;;;16.50;99.90;;;;;;5035654;28;20434;-75
2023/10/18 12:55:04;;;;;;;8.87;8.00;;;16.70;99.90;;;;;;5036481;28;20440;-71
2023/10/18 12:57:32;;;;;;;9.60;8.60;;;17.00;99.90;;;;;;5035356;28;20403;-71
2023/10/18 13:00:13;;;;;;;8.60;7.70;;;17.20;99.70;;;;;;5034629;28;20406;-73
2023/10/18 13:05:39;;;;;;;7.30;6.60;;;16.70;98.80;;;;;;5036937;28;20449;-70
2023/10/18 13:08:15;;;;;;;7.57;6.77;;;16.90;98.90;;;;;;5035082;28;20829;-70
2023/10/18 13:10:47;;;;;;;7.87;7.07;;;17.10;98.50;;;;;;5031536;28;20477;-72
2023/10/18 13:13:16;;;;;;;7.07;6.27;;;17.30;98.50;;;;;;5031871;28;20396;-71
2023/10/18 13:15:43;;;;;;;6.53;5.90;;;17.30;98.50;;;;;;5031420;28;20427;-69
2023/10/18 13:18:11;;;;;;;6.20;5.50;;;17.20;98.50;;;;;;5031439;28;20414;-70
2023/10/18 13:20:37;;;;;;;7.40;6.00;;;17.40;98.40;;;;;;5034511;28;20442;-70
2023/10/18 13:23:06;;;;;;;6.53;5.77;;;17.40;98.70;;;;;;5034407;28;20453;-71
2023/10/18 13:25:49;;;;;;;7.40;5.33;;;17.60;98.40;;;;;;5034584;28;20253;-72
2023/10/18 13:28:24;;;;;;;8.20;5.00;;;17.90;98.40;;;;;;5034436;28;20440;-72
2023/10/18 13:30:53;;;;;;;7.90;5.60;;;18.00;97.20;;;;;;5030934;28;20443;-72
2023/10/18 13:33:18;;;;;;;6.20;4.80;;;17.90;97.20;;;;;;5015718;28;20442;-71
2023/10/18 13:35:45;;;;;;;5.53;4.97;;;17.60;97.30;;;;;;5013756;28;20431;-72
2023/10/18 13:38:11;;;;;;;4.73;4.37;;;17.70;98.60;;;;;;5013874;28;20608;-72
2023/10/18 13:40:37;;;;;;;5.33;4.77;;;17.60;97.80;;;;;;5029718;28;20449;-70
2023/10/18 13:43:08;;;;;;;5.30;4.77;;;17.50;98.10;;;;;;5031047;28;20179;-70
2023/10/18 13:45:34;;;;;;;5.60;4.97;;;17.50;98.20;;;;;;5032740;28;20196;-72
2023/10/18 13:48:01;;;;;;;6.30;4.60;;;17.30;97.70;;;;;;5033509;28;20415;-72
2023/10/18 13:50:29;;;;;;;5.30;4.80;;;17.50;98.00;;;;;;5033385;28;20191;-74
2023/10/18 13:52:55;;;;;;;5.80;5.30;;;17.60;98.40;;;;;;5033533;28;20398;-72
2023/10/18 13:55:21;;;;;;;5.40;4.90;;;17.60;97.70;;;;;;5033381;28;20425;-73
2023/10/18 13:57:46;;;;;;;6.37;5.77;;;17.40;97.60;;;;;;5033469;28;20262;-71